createdAt,value
2023-04-19T09:19:52.051Z,103071.31
2023-04-19T09:22:20.075Z,103058.16
2023-04-19T09:27:26.872Z,103043.25
2023-04-19T09:29:55.362Z,103049.38
2023-04-19T09:32:23.493Z,103048.50
2023-04-19T09:34:56.890Z,103048.47
2023-04-19T09:37:41.470Z,103042.34
2023-04-19T09:40:25.155Z,103048.50
2023-04-19T09:48:02.587Z,103037.09
2023-04-19T09:50:33.498Z,103038.88
2023-04-19T09:53:03.892Z,103039.75
2023-04-19T09:55:41.264Z,103039.75
2023-04-19T09:58:13.012Z,103030.09
2023-04-19T10:00:48.006Z,103025.69
2023-04-19T10:03:18.687Z,103028.34
2023-04-19T10:05:48.592Z,103016.06
2023-04-19T10:08:16.785Z,103016.97
2023-04-19T10:10:45.627Z,103004.66
2023-04-19T10:15:51.244Z,102995.03
2023-04-19T10:18:21.623Z,102995.03
2023-04-19T10:20:54.461Z,102995.00
2023-04-19T10:23:22.409Z,102989.75
2023-04-19T10:25:50.380Z,102975.69
2023-04-19T10:28:18.370Z,102979.22
2023-04-19T10:30:55.811Z,102965.16
2023-04-19T10:33:27.862Z,102971.31
2023-04-19T10:35:58.818Z,102971.31
2023-04-19T10:38:40.247Z,102965.22
2023-04-19T10:41:16.889Z,102958.19
2023-04-19T10:43:47.227Z,102960.84
2023-04-19T10:46:18.101Z,102949.41
2023-04-19T10:48:55.835Z,102951.16
2023-04-19T10:51:27.884Z,102947.66
2023-04-19T10:53:57.568Z,102948.53
2023-04-19T10:57:11.219Z,102936.25
2023-04-19T10:59:40.386Z,102941.50
2023-04-19T11:02:29.041Z,102931.84
2023-04-19T11:05:01.991Z,102939.78
2023-04-19T11:07:38.059Z,102936.25
2023-04-19T11:10:06.731Z,102933.63
2023-04-19T11:12:35.076Z,102933.63
2023-04-19T11:15:03.216Z,102914.28
2023-04-19T11:17:32.269Z,102920.44
2023-04-19T11:20:00.855Z,102914.28
2023-04-19T11:22:33.915Z,102918.66
2023-04-19T11:25:13.459Z,102908.13
2023-04-19T11:27:41.524Z,102911.63
2023-04-19T11:30:10.611Z,102907.25
2023-04-19T11:32:38.700Z,102899.31
2023-04-19T11:35:08.930Z,102904.59
2023-04-19T11:37:39.394Z,102898.44
2023-04-19T11:40:08.677Z,102893.16
2023-04-19T11:42:37.023Z,102901.06
2023-04-19T11:45:08.995Z,102895.81
2023-04-19T11:47:49.291Z,102887.03
2023-04-19T11:50:33.373Z,102888.78
2023-04-19T11:53:10.966Z,102890.50
2023-04-19T11:55:39.244Z,102885.22
2023-04-19T11:58:09.812Z,102878.19
2023-04-19T12:00:38.220Z,102888.72
2023-04-19T12:03:06.684Z,102876.44
2023-04-19T12:05:35.085Z,102881.72
2023-04-19T12:08:05.218Z,102875.59
2023-04-19T12:10:33.316Z,102872.91
2023-04-19T12:13:01.385Z,102877.31
2023-04-19T12:15:44.452Z,102873.81
2023-04-19T12:18:12.811Z,102863.22
2023-04-19T12:20:45.331Z,102850.03
2023-04-19T12:23:15.865Z,102857.03
2023-04-19T12:25:44.221Z,102858.78
2023-04-19T12:28:12.404Z,102857.00
2023-04-19T12:30:40.743Z,102855.25
2023-04-19T12:33:08.946Z,102849.09
2023-04-19T12:35:38.661Z,102857.84
2023-04-19T12:38:06.819Z,102848.13
2023-04-19T12:40:36.642Z,102851.66
2023-04-19T12:43:05.337Z,102856.91
2023-04-19T12:45:35.058Z,102849.88
2023-04-19T12:48:03.494Z,102852.44
2023-04-19T12:50:31.610Z,102845.38
2023-04-19T12:52:59.629Z,102845.38
2023-04-19T12:55:27.750Z,102851.53
2023-04-19T12:57:57.306Z,102840.09
2023-04-19T13:00:25.598Z,102837.44
2023-04-19T13:02:53.687Z,102837.44
2023-04-19T13:05:21.759Z,102838.28
2023-04-19T13:07:50.024Z,102834.75
2023-04-19T13:10:18.379Z,102842.66
2023-04-19T13:12:46.404Z,102833.84
2023-04-19T13:15:15.772Z,102825.06
2023-04-19T13:17:43.829Z,102829.44
2023-04-19T13:20:12.450Z,102828.53
2023-04-19T13:22:40.414Z,102823.19
2023-04-19T13:25:09.034Z,102824.97
2023-04-19T13:27:37.079Z,102824.06
2023-04-19T13:30:05.405Z,102823.09
2023-04-19T13:32:35.017Z,102826.56
2023-04-19T13:35:03.024Z,102817.72
2023-04-19T13:37:31.032Z,102820.38
2023-04-19T13:40:10.548Z,102813.34
2023-04-19T13:42:43.276Z,102815.06
2023-04-19T13:45:11.689Z,102812.34
2023-04-19T13:47:44.277Z,102805.31
2023-04-19T13:50:13.123Z,102823.81
2023-04-19T13:52:41.217Z,102798.28
2023-04-19T13:55:09.965Z,102800.03
2023-04-19T13:57:37.960Z,102800.94
2023-04-19T14:00:07.336Z,102789.44
2023-04-19T14:02:35.401Z,102792.03
2023-04-19T14:05:05.082Z,102792.03
2023-04-19T14:07:33.941Z,102798.13
2023-04-19T14:10:01.999Z,102798.13
2023-04-19T14:12:31.018Z,102792.78
2023-04-19T14:14:58.940Z,102801.53
2023-04-19T14:17:27.192Z,102782.16
2023-04-19T14:19:55.246Z,102781.25
2023-04-19T14:22:24.717Z,102791.72
2023-04-19T14:24:52.710Z,102780.22
2023-04-19T14:27:20.801Z,102773.06
2023-04-19T14:29:48.776Z,102776.44
2023-04-19T14:32:26.212Z,102779.75
2023-04-19T14:34:55.182Z,102775.00
2023-04-19T14:37:24.704Z,102769.22
2023-04-19T14:39:52.726Z,102775.66
2023-04-19T14:42:22.614Z,102773.16
2023-04-19T14:44:52.224Z,102761.88
2023-04-19T14:47:20.261Z,102761.09
2023-04-19T14:49:48.295Z,102769.16
2023-04-19T14:52:16.494Z,102771.16
2023-04-19T14:54:46.120Z,102766.16
2023-04-19T14:57:14.390Z,102762.97
2023-04-19T14:59:42.343Z,102763.41
2023-04-19T15:02:13.426Z,102762.16
2023-04-19T15:04:42.179Z,102762.81
2023-04-19T15:07:10.701Z,102765.34
2023-04-19T15:09:38.684Z,102766.91
2023-04-19T15:12:08.062Z,102766.72
2023-04-19T15:14:36.024Z,102763.06
2023-04-19T15:17:04.060Z,102761.06
2023-04-19T15:19:31.978Z,102751.19
2023-04-19T15:22:00.054Z,102756.38
2023-04-19T15:24:28.036Z,102747.44
2023-04-19T15:26:56.761Z,102749.16
2023-04-19T15:29:26.386Z,102751.78
2023-04-19T15:31:54.361Z,102744.66
2023-04-19T15:34:22.402Z,102746.47
2023-04-19T15:36:50.924Z,102740.41
2023-04-19T15:39:19.100Z,102748.59
2023-04-19T15:41:47.025Z,102749.03
2023-04-19T15:44:14.921Z,102742.63
2023-04-19T15:46:44.331Z,102745.31
2023-04-19T15:49:12.452Z,102749.28
2023-04-19T15:51:40.695Z,102752.97
2023-04-19T15:54:08.603Z,102756.78
2023-04-19T15:56:36.575Z,102754.44
2023-04-19T15:59:04.520Z,102745.13
2023-04-19T16:01:32.510Z,102739.34
2023-04-19T16:04:03.789Z,102738.81
2023-04-19T16:06:32.088Z,102740.91
2023-04-19T16:08:59.991Z,102746.50
2023-04-19T16:11:27.982Z,102732.50
2023-04-19T16:13:56.159Z,102735.28
2023-04-19T16:16:26.577Z,102736.28
2023-04-19T16:18:54.653Z,102736.38
2023-04-19T16:21:23.924Z,102735.63
2023-04-19T16:23:51.856Z,102733.94
2023-04-19T16:26:19.767Z,102725.25
2023-04-19T16:28:48.375Z,102731.56
2023-04-19T16:31:16.339Z,102725.44
2023-04-19T16:33:44.277Z,102730.84
2023-04-19T16:36:12.243Z,102726.56
2023-04-19T16:38:41.577Z,102736.38
2023-04-19T16:41:09.715Z,102731.16
2023-04-19T16:43:37.720Z,102735.69
2023-04-19T16:46:07.135Z,102738.44
2023-04-19T16:48:35.164Z,102727.91
2023-04-19T16:51:03.435Z,102721.84
2023-04-19T16:53:32.169Z,102730.69
2023-04-19T16:56:03.563Z,102729.00
2023-04-19T16:58:31.802Z,102721.16
2023-04-19T17:00:59.772Z,102720.31
2023-04-19T17:03:29.497Z,102723.03
2023-04-19T17:05:57.586Z,102710.69
2023-04-19T17:08:26.467Z,102715.09
2023-04-19T17:10:54.377Z,102721.22
2023-04-19T17:13:23.689Z,102724.69
2023-04-19T17:15:51.703Z,102715.75
2023-04-19T17:18:19.664Z,102720.06
2023-04-19T17:20:47.709Z,102715.56
2023-04-19T17:23:15.784Z,102715.50
2023-04-19T17:25:43.800Z,102711.94
2023-04-19T17:28:11.816Z,102698.69
2023-04-19T17:30:41.360Z,102712.75
2023-04-19T17:33:09.337Z,102705.72
2023-04-19T17:35:37.481Z,102707.47
2023-04-19T17:38:05.661Z,102704.84
2023-04-19T17:40:33.589Z,102704.00
2023-04-19T17:43:01.644Z,102702.28
2023-04-19T17:45:29.548Z,102704.97
2023-04-19T17:47:58.933Z,102700.59
2023-04-19T17:50:27.295Z,102698.91
2023-04-19T17:52:55.771Z,102700.75
2023-04-19T17:55:25.451Z,102709.72
2023-04-19T17:57:53.422Z,102703.75
2023-04-19T18:00:21.841Z,102698.56
2023-04-19T18:02:49.865Z,102703.06
2023-04-19T18:05:19.318Z,102704.88
2023-04-19T18:07:47.758Z,102710.19
2023-04-19T18:10:15.706Z,102710.25
2023-04-19T18:12:43.758Z,102704.13
2023-04-19T18:15:12.544Z,102710.41
2023-04-19T18:17:41.326Z,102708.78
2023-04-19T18:20:11.873Z,102710.69
2023-04-19T18:22:42.973Z,102711.75
2023-04-19T18:25:11.267Z,102716.31
2023-04-19T18:27:39.282Z,102714.63
2023-04-19T18:30:08.258Z,102723.56
2023-04-19T18:32:36.248Z,102721.91
2023-04-19T18:35:04.527Z,102720.25
2023-04-19T18:37:32.546Z,102729.19
2023-04-19T18:40:01.869Z,102728.38
2023-04-19T18:42:29.782Z,102725.84
2023-04-19T18:44:57.711Z,102739.16
2023-04-19T18:47:27.083Z,102739.25
2023-04-19T18:50:03.629Z,102734.91
2023-04-19T18:52:34.030Z,102737.63
2023-04-19T18:55:03.500Z,102735.06
2023-04-19T18:57:34.657Z,102728.94
2023-04-19T19:00:05.274Z,102722.00
2023-04-19T19:02:36.220Z,102728.19
2023-04-19T19:07:36.666Z,102735.28
2023-04-19T19:10:17.324Z,102732.69
2023-04-19T19:12:48.770Z,102728.34
2023-04-19T19:15:16.891Z,102731.00
2023-04-19T19:17:49.457Z,102737.19
2023-04-19T19:20:18.759Z,102734.59
2023-04-19T19:22:46.789Z,102726.72
2023-04-19T19:25:16.614Z,102725.88
2023-04-19T19:28:02.839Z,102721.50
2023-04-19T19:30:33.937Z,102718.94
2023-04-19T19:33:02.784Z,102722.41
2023-04-19T19:35:31.344Z,102718.94
2023-04-19T19:37:59.358Z,102718.94
2023-04-19T19:40:31.147Z,102709.28
2023-04-19T19:43:00.726Z,102717.22
2023-04-19T19:45:29.076Z,102714.59
2023-04-19T19:47:58.847Z,102719.00
2023-04-19T19:51:05.151Z,102715.53
2023-04-19T19:53:16.785Z,102710.28
2023-04-19T19:55:46.101Z,102703.25
2023-04-19T19:58:35.367Z,102708.53
2023-04-19T20:01:03.154Z,102700.63
2023-04-19T20:03:37.508Z,102701.53
2023-04-19T20:08:42.484Z,102696.31
2023-04-19T20:11:13.469Z,102698.91
2023-04-19T20:13:41.525Z,102692.78
2023-04-19T20:16:10.008Z,102694.53
2023-04-19T20:18:38.771Z,102695.44
2023-04-19T20:21:06.698Z,102692.81
2023-04-19T20:23:34.662Z,102687.53
2023-04-19T20:26:02.629Z,102686.69
2023-04-19T20:28:32.038Z,102677.91
2023-04-19T20:31:00.011Z,102676.16
2023-04-19T20:33:28.912Z,102674.41
2023-04-19T20:35:56.870Z,102682.31
2023-04-19T20:38:26.513Z,102679.69
2023-04-19T20:40:54.807Z,102683.22
2023-04-19T20:43:22.979Z,102691.13
2023-04-19T20:45:52.334Z,102698.13
2023-04-19T20:48:20.487Z,102699.03
2023-04-19T20:50:48.397Z,102703.47
2023-04-19T20:53:16.457Z,102709.56
2023-04-19T20:55:44.734Z,102707.84
2023-04-19T20:58:12.757Z,102714.00
2023-04-19T21:00:40.752Z,102700.81
2023-04-19T21:03:10.188Z,102699.06
2023-04-19T21:05:38.189Z,102696.44
2023-04-19T21:08:06.394Z,102679.75
2023-04-19T21:10:34.336Z,102680.63
2023-04-19T21:13:02.341Z,102680.63
2023-04-19T21:15:30.280Z,102671.00
2023-04-19T21:17:58.221Z,102674.53
2023-04-19T21:20:27.622Z,102675.41
2023-04-19T21:22:55.514Z,102677.16
2023-04-19T21:25:23.520Z,102673.69
2023-04-19T21:27:51.462Z,102676.31
2023-04-19T21:30:20.458Z,102674.56
2023-04-19T21:32:49.849Z,102682.47
2023-04-19T21:35:18.036Z,102671.03
2023-04-19T21:37:47.462Z,102667.56
2023-04-19T21:40:15.501Z,102643.84
2023-04-19T21:42:43.445Z,102641.22
2023-04-19T21:45:12.455Z,102634.22
2023-04-19T21:47:40.418Z,102640.34
2023-04-19T21:50:09.783Z,102633.31
2023-04-19T21:52:37.693Z,102635.94
2023-04-19T21:55:08.548Z,102641.22
2023-04-19T21:57:38.264Z,102633.31
2023-04-19T22:00:09.126Z,102627.16
2023-04-19T22:02:37.408Z,102626.31
2023-04-19T22:05:07.360Z,102621.91
2023-04-19T22:07:38.089Z,102619.28
2023-04-19T22:10:09.414Z,102615.78
2023-04-19T22:12:45.126Z,102606.09
2023-04-19T22:15:19.638Z,102606.97
2023-04-19T22:17:48.205Z,102603.44
2023-04-19T22:20:16.241Z,102603.44
2023-04-19T22:22:44.197Z,102599.06
2023-04-19T22:25:13.508Z,102592.03
2023-04-19T22:27:41.463Z,102584.16
2023-04-19T22:30:10.106Z,102584.16
2023-04-19T22:32:38.115Z,102583.28
2023-04-19T22:35:07.413Z,102577.13
2023-04-19T22:37:35.404Z,102583.28
2023-04-19T22:40:05.292Z,102582.44
2023-04-19T22:42:38.174Z,102571.91
2023-04-19T22:45:07.293Z,102562.25
2023-04-19T22:47:35.299Z,102556.09
2023-04-19T22:50:03.230Z,102557.84
2023-04-19T22:52:31.133Z,102553.47
2023-04-19T22:54:59.090Z,102547.31
2023-04-19T22:57:26.990Z,102549.06
2023-04-19T22:59:57.488Z,102542.91
2023-04-19T23:02:25.722Z,102545.53
2023-04-19T23:04:54.386Z,102538.50
2023-04-19T23:07:22.736Z,102535.91
2023-04-19T23:09:51.701Z,102537.66
2023-04-19T23:12:19.646Z,102531.56
2023-04-19T23:14:48.426Z,102528.03
2023-04-19T23:17:18.164Z,102521.03
2023-04-19T23:19:46.405Z,102514.00
2023-04-19T23:22:14.337Z,102520.13
2023-04-19T23:24:42.274Z,102513.13
2023-04-19T23:27:10.209Z,102507.84
2023-04-19T23:29:38.201Z,102506.09
2023-04-19T23:32:06.233Z,102506.09
2023-04-19T23:34:35.570Z,102509.59
2023-04-19T23:37:03.537Z,102509.59
2023-04-19T23:39:31.645Z,102495.59
2023-04-19T23:41:59.619Z,102491.22
2023-04-19T23:44:28.030Z,102495.59
2023-04-19T23:46:56.081Z,102478.06
2023-04-19T23:49:23.981Z,102477.22
2023-04-19T23:51:53.300Z,102476.31
2023-04-19T23:54:25.741Z,102473.69
2023-04-19T23:56:53.703Z,102469.28
2023-04-19T23:59:22.443Z,102458.78
